sensor_id;sensor_type;location;lat;lon;timestamp;temperature;humidity
27004;DHT22;14546;47.590;19.022;2023-04-25T00:00:35;12.20;86.10
27004;DHT22;14546;47.590;19.022;2023-04-25T00:03:02;12.20;86.10
27004;DHT22;14546;47.590;19.022;2023-04-25T00:05:31;12.20;85.80
27004;DHT22;14546;47.590;19.022;2023-04-25T00:07:57;12.20;85.70
27004;DHT22;14546;47.590;19.022;2023-04-25T00:10:25;12.20;85.60
27004;DHT22;14546;47.590;19.022;2023-04-25T00:12:52;12.20;85.40
27004;DHT22;14546;47.590;19.022;2023-04-25T00:15:17;12.20;85.50
27004;DHT22;14546;47.590;19.022;2023-04-25T00:17:44;12.10;85.30
27004;DHT22;14546;47.590;19.022;2023-04-25T00:20:11;12.10;85.30
27004;DHT22;14546;47.590;19.022;2023-04-25T00:22:37;12.10;85.30
27004;DHT22;14546;47.590;19.022;2023-04-25T00:25:05;12.20;85.30
27004;DHT22;14546;47.590;19.022;2023-04-25T00:27:32;12.20;85.30
27004;DHT22;14546;47.590;19.022;2023-04-25T00:29:58;12.20;85.20
27004;DHT22;14546;47.590;19.022;2023-04-25T00:32:24;12.20;85.20
27004;DHT22;14546;47.590;19.022;2023-04-25T00:34:49;12.20;85.10
27004;DHT22;14546;47.590;19.022;2023-04-25T00:37:16;12.10;85.00
27004;DHT22;14546;47.590;19.022;2023-04-25T00:39:43;12.10;85.00
27004;DHT22;14546;47.590;19.022;2023-04-25T00:42:10;12.10;85.10
27004;DHT22;14546;47.590;19.022;2023-04-25T00:44:37;12.10;85.20
27004;DHT22;14546;47.590;19.022;2023-04-25T00:47:04;12.00;85.30
27004;DHT22;14546;47.590;19.022;2023-04-25T00:49:30;12.00;85.40
27004;DHT22;14546;47.590;19.022;2023-04-25T00:51:57;12.00;85.40
27004;DHT22;14546;47.590;19.022;2023-04-25T00:54:23;12.00;85.50
27004;DHT22;14546;47.590;19.022;2023-04-25T00:56:50;12.00;85.50
27004;DHT22;14546;47.590;19.022;2023-04-25T00:59:17;12.00;85.50
27004;DHT22;14546;47.590;19.022;2023-04-25T01:01:45;12.00;85.50
27004;DHT22;14546;47.590;19.022;2023-04-25T01:04:11;11.90;85.40
27004;DHT22;14546;47.590;19.022;2023-04-25T01:06:36;11.90;85.40
27004;DHT22;14546;47.590;19.022;2023-04-25T01:09:03;11.90;85.30
27004;DHT22;14546;47.590;19.022;2023-04-25T01:11:32;11.90;85.40
27004;DHT22;14546;47.590;19.022;2023-04-25T01:13:58;11.90;85.40
27004;DHT22;14546;47.590;19.022;2023-04-25T01:16:24;11.90;85.40
27004;DHT22;14546;47.590;19.022;2023-04-25T01:18:50;11.90;85.50
27004;DHT22;14546;47.590;19.022;2023-04-25T01:21:16;11.80;85.60
27004;DHT22;14546;47.590;19.022;2023-04-25T01:23:43;11.80;85.60
27004;DHT22;14546;47.590;19.022;2023-04-25T01:26:11;11.80;85.70
27004;DHT22;14546;47.590;19.022;2023-04-25T01:28:38;11.80;85.80
27004;DHT22;14546;47.590;19.022;2023-04-25T01:31:07;11.80;86.60
27004;DHT22;14546;47.590;19.022;2023-04-25T01:33:34;11.80;85.90
27004;DHT22;14546;47.590;19.022;2023-04-25T01:36:01;11.80;86.10
27004;DHT22;14546;47.590;19.022;2023-04-25T01:38:27;11.80;86.20
27004;DHT22;14546;47.590;19.022;2023-04-25T01:40:54;11.70;86.20
27004;DHT22;14546;47.590;19.022;2023-04-25T01:43:20;11.70;86.30
27004;DHT22;14546;47.590;19.022;2023-04-25T01:45:48;11.70;86.30
27004;DHT22;14546;47.590;19.022;2023-04-25T01:48:16;11.70;86.30
27004;DHT22;14546;47.590;19.022;2023-04-25T01:50:44;11.70;86.30
27004;DHT22;14546;47.590;19.022;2023-04-25T01:53:13;11.60;86.30
27004;DHT22;14546;47.590;19.022;2023-04-25T01:55:39;11.60;86.40
27004;DHT22;14546;47.590;19.022;2023-04-25T01:58:05;11.60;86.40
27004;DHT22;14546;47.590;19.022;2023-04-25T02:00:38;11.60;86.40
27004;DHT22;14546;47.590;19.022;2023-04-25T02:03:05;11.60;86.30
27004;DHT22;14546;47.590;19.022;2023-04-25T02:05:36;11.60;86.20
27004;DHT22;14546;47.590;19.022;2023-04-25T02:08:04;11.60;86.10
27004;DHT22;14546;47.590;19.022;2023-04-25T02:10:30;11.60;85.90
27004;DHT22;14546;47.590;19.022;2023-04-25T02:12:57;11.60;85.80
27004;DHT22;14546;47.590;19.022;2023-04-25T02:15:23;11.60;85.60
27004;DHT22;14546;47.590;19.022;2023-04-25T02:17:48;11.60;85.50
27004;DHT22;14546;47.590;19.022;2023-04-25T02:20:15;11.60;85.40
27004;DHT22;14546;47.590;19.022;2023-04-25T02:22:45;11.60;85.20
27004;DHT22;14546;47.590;19.022;2023-04-25T02:25:12;11.70;84.90
27004;DHT22;14546;47.590;19.022;2023-04-25T02:27:38;11.70;84.70
27004;DHT22;14546;47.590;19.022;2023-04-25T02:30:05;11.70;84.30
27004;DHT22;14546;47.590;19.022;2023-04-25T02:32:32;11.70;83.50
27004;DHT22;14546;47.590;19.022;2023-04-25T02:35:00;11.70;83.20
27004;DHT22;14546;47.590;19.022;2023-04-25T02:37:30;11.80;82.50
27004;DHT22;14546;47.590;19.022;2023-04-25T02:39:56;11.80;81.70
27004;DHT22;14546;47.590;19.022;2023-04-25T02:42:22;11.80;81.20
27004;DHT22;14546;47.590;19.022;2023-04-25T02:44:47;11.80;80.50
27004;DHT22;14546;47.590;19.022;2023-04-25T02:47:14;11.80;80.10
27004;DHT22;14546;47.590;19.022;2023-04-25T02:49:40;11.90;79.60
27004;DHT22;14546;47.590;19.022;2023-04-25T02:52:05;11.90;79.10
27004;DHT22;14546;47.590;19.022;2023-04-25T02:54:32;11.90;79.00
27004;DHT22;14546;47.590;19.022;2023-04-25T02:56:58;11.90;79.10
27004;DHT22;14546;47.590;19.022;2023-04-25T02:59:23;11.90;79.40
27004;DHT22;14546;47.590;19.022;2023-04-25T03:01:49;11.90;79.60
27004;DHT22;14546;47.590;19.022;2023-04-25T03:04:15;11.80;79.80
27004;DHT22;14546;47.590;19.022;2023-04-25T03:06:40;11.80;80.20
27004;DHT22;14546;47.590;19.022;2023-04-25T03:09:07;11.80;80.70
27004;DHT22;14546;47.590;19.022;2023-04-25T03:11:34;11.80;81.00
27004;DHT22;14546;47.590;19.022;2023-04-25T03:14:03;11.70;81.40
27004;DHT22;14546;47.590;19.022;2023-04-25T03:16:29;11.70;81.60
27004;DHT22;14546;47.590;19.022;2023-04-25T03:18:54;11.60;81.90
27004;DHT22;14546;47.590;19.022;2023-04-25T03:21:21;11.60;82.20
27004;DHT22;14546;47.590;19.022;2023-04-25T03:23:46;11.50;82.30
27004;DHT22;14546;47.590;19.022;2023-04-25T03:26:14;11.50;82.40
27004;DHT22;14546;47.590;19.022;2023-04-25T03:28:41;11.50;82.40
27004;DHT22;14546;47.590;19.022;2023-04-25T03:31:08;11.40;82.30
27004;DHT22;14546;47.590;19.022;2023-04-25T03:33:33;11.40;82.50
27004;DHT22;14546;47.590;19.022;2023-04-25T03:36:04;11.40;82.60
27004;DHT22;14546;47.590;19.022;2023-04-25T03:38:32;11.30;82.60
27004;DHT22;14546;47.590;19.022;2023-04-25T03:40:58;11.30;82.70
27004;DHT22;14546;47.590;19.022;2023-04-25T03:43:24;11.30;82.90
27004;DHT22;14546;47.590;19.022;2023-04-25T03:45:50;11.30;83.10
27004;DHT22;14546;47.590;19.022;2023-04-25T03:48:17;11.20;83.20
27004;DHT22;14546;47.590;19.022;2023-04-25T03:50:43;11.20;83.30
27004;DHT22;14546;47.590;19.022;2023-04-25T03:53:10;11.10;83.60
27004;DHT22;14546;47.590;19.022;2023-04-25T03:55:38;11.10;84.00
27004;DHT22;14546;47.590;19.022;2023-04-25T03:58:04;11.00;84.30
27004;DHT22;14546;47.590;19.022;2023-04-25T04:00:31;11.00;85.30
27004;DHT22;14546;47.590;19.022;2023-04-25T04:02:57;10.90;84.70
27004;DHT22;14546;47.590;19.022;2023-04-25T04:05:22;10.90;84.90
27004;DHT22;14546;47.590;19.022;2023-04-25T04:07:48;10.80;85.10
27004;DHT22;14546;47.590;19.022;2023-04-25T04:10:14;10.80;85.50
27004;DHT22;14546;47.590;19.022;2023-04-25T04:12:40;10.80;85.70
27004;DHT22;14546;47.590;19.022;2023-04-25T04:15:06;10.70;86.00
27004;DHT22;14546;47.590;19.022;2023-04-25T04:17:32;10.70;86.50
27004;DHT22;14546;47.590;19.022;2023-04-25T04:19:59;10.60;86.60
27004;DHT22;14546;47.590;19.022;2023-04-25T04:22:25;10.60;87.10
27004;DHT22;14546;47.590;19.022;2023-04-25T04:24:51;10.50;87.20
27004;DHT22;14546;47.590;19.022;2023-04-25T04:27:21;10.50;87.50
27004;DHT22;14546;47.590;19.022;2023-04-25T04:29:47;10.50;87.60
27004;DHT22;14546;47.590;19.022;2023-04-25T04:32:14;10.50;87.60
27004;DHT22;14546;47.590;19.022;2023-04-25T04:34:40;10.50;87.70
27004;DHT22;14546;47.590;19.022;2023-04-25T04:37:07;10.50;88.40
27004;DHT22;14546;47.590;19.022;2023-04-25T04:39:36;10.50;87.70
27004;DHT22;14546;47.590;19.022;2023-04-25T04:42:03;10.50;87.80
27004;DHT22;14546;47.590;19.022;2023-04-25T04:44:30;10.50;87.90
27004;DHT22;14546;47.590;19.022;2023-04-25T04:46:59;10.40;87.90
27004;DHT22;14546;47.590;19.022;2023-04-25T04:49:24;10.40;88.20
27004;DHT22;14546;47.590;19.022;2023-04-25T04:51:52;10.30;88.50
27004;DHT22;14546;47.590;19.022;2023-04-25T04:54:21;10.30;88.90
27004;DHT22;14546;47.590;19.022;2023-04-25T04:56:47;10.30;89.30
27004;DHT22;14546;47.590;19.022;2023-04-25T04:59:13;10.20;89.60
27004;DHT22;14546;47.590;19.022;2023-04-25T05:01:39;10.10;90.00
27004;DHT22;14546;47.590;19.022;2023-04-25T05:04:05;10.10;90.30
27004;DHT22;14546;47.590;19.022;2023-04-25T05:06:31;10.00;90.50
27004;DHT22;14546;47.590;19.022;2023-04-25T05:08:57;10.00;90.70
27004;DHT22;14546;47.590;19.022;2023-04-25T05:11:23;10.00;90.80
27004;DHT22;14546;47.590;19.022;2023-04-25T05:13:52;9.90;90.90
27004;DHT22;14546;47.590;19.022;2023-04-25T05:16:18;9.90;91.10
27004;DHT22;14546;47.590;19.022;2023-04-25T05:18:45;9.80;91.20
27004;DHT22;14546;47.590;19.022;2023-04-25T05:21:11;9.80;91.40
27004;DHT22;14546;47.590;19.022;2023-04-25T05:23:37;9.80;91.50
27004;DHT22;14546;47.590;19.022;2023-04-25T05:26:02;9.70;91.60
27004;DHT22;14546;47.590;19.022;2023-04-25T05:28:28;9.70;91.80
27004;DHT22;14546;47.590;19.022;2023-04-25T05:30:54;9.70;91.90
27004;DHT22;14546;47.590;19.022;2023-04-25T05:33:23;9.70;92.00
27004;DHT22;14546;47.590;19.022;2023-04-25T05:35:48;9.70;92.20
27004;DHT22;14546;47.590;19.022;2023-04-25T05:38:14;9.60;92.30
27004;DHT22;14546;47.590;19.022;2023-04-25T05:40:40;9.60;92.40
27004;DHT22;14546;47.590;19.022;2023-04-25T05:43:06;9.60;92.60
27004;DHT22;14546;47.590;19.022;2023-04-25T05:45:33;9.50;92.70
27004;DHT22;14546;47.590;19.022;2023-04-25T05:48:00;9.50;93.00
27004;DHT22;14546;47.590;19.022;2023-04-25T05:50:26;9.50;93.20
27004;DHT22;14546;47.590;19.022;2023-04-25T05:52:52;9.40;93.40
27004;DHT22;14546;47.590;19.022;2023-04-25T05:55:18;9.40;93.70
27004;DHT22;14546;47.590;19.022;2023-04-25T05:57:44;9.30;94.10
27004;DHT22;14546;47.590;19.022;2023-04-25T06:00:14;9.30;94.40
27004;DHT22;14546;47.590;19.022;2023-04-25T06:02:41;9.30;94.70
27004;DHT22;14546;47.590;19.022;2023-04-25T06:05:07;9.30;94.90
27004;DHT22;14546;47.590;19.022;2023-04-25T06:07:33;9.30;95.30
27004;DHT22;14546;47.590;19.022;2023-04-25T06:09:58;9.30;95.70
27004;DHT22;14546;47.590;19.022;2023-04-25T06:12:26;9.20;95.90
27004;DHT22;14546;47.590;19.022;2023-04-25T06:14:51;9.20;96.30
27004;DHT22;14546;47.590;19.022;2023-04-25T06:17:17;9.30;96.60
27004;DHT22;14546;47.590;19.022;2023-04-25T06:19:43;9.30;96.80
27004;DHT22;14546;47.590;19.022;2023-04-25T06:22:08;9.30;97.10
27004;DHT22;14546;47.590;19.022;2023-04-25T06:24:36;9.30;97.40
27004;DHT22;14546;47.590;19.022;2023-04-25T06:27:02;9.40;97.70
27004;DHT22;14546;47.590;19.022;2023-04-25T06:29:28;9.40;97.90
27004;DHT22;14546;47.590;19.022;2023-04-25T06:31:54;9.40;98.10
27004;DHT22;14546;47.590;19.022;2023-04-25T06:34:20;9.40;98.30
27004;DHT22;14546;47.590;19.022;2023-04-25T06:36:46;9.40;98.60
27004;DHT22;14546;47.590;19.022;2023-04-25T06:39:11;9.40;98.90
27004;DHT22;14546;47.590;19.022;2023-04-25T06:41:40;9.50;99.10
27004;DHT22;14546;47.590;19.022;2023-04-25T06:44:06;9.50;99.20
27004;DHT22;14546;47.590;19.022;2023-04-25T06:46:35;9.60;99.30
27004;DHT22;14546;47.590;19.022;2023-04-25T06:49:04;9.60;99.90
27004;DHT22;14546;47.590;19.022;2023-04-25T06:51:31;9.60;99.70
27004;DHT22;14546;47.590;19.022;2023-04-25T06:53:57;9.70;99.90
27004;DHT22;14546;47.590;19.022;2023-04-25T06:56:23;9.70;99.90
27004;DHT22;14546;47.590;19.022;2023-04-25T06:58:49;9.80;99.90
27004;DHT22;14546;47.590;19.022;2023-04-25T07:01:15;9.90;99.90
27004;DHT22;14546;47.590;19.022;2023-04-25T07:03:40;9.90;99.90
27004;DHT22;14546;47.590;19.022;2023-04-25T07:06:06;10.00;99.90
27004;DHT22;14546;47.590;19.022;2023-04-25T07:08:32;10.00;99.90
27004;DHT22;14546;47.590;19.022;2023-04-25T07:10:58;10.00;99.90
27004;DHT22;14546;47.590;19.022;2023-04-25T07:13:23;10.10;99.90
27004;DHT22;14546;47.590;19.022;2023-04-25T07:15:49;10.20;99.90
27004;DHT22;14546;47.590;19.022;2023-04-25T07:18:15;10.20;99.90
27004;DHT22;14546;47.590;19.022;2023-04-25T07:20:41;10.30;99.90
27004;DHT22;14546;47.590;19.022;2023-04-25T07:23:07;10.40;99.90
27004;DHT22;14546;47.590;19.022;2023-04-25T07:25:32;10.50;99.90
27004;DHT22;14546;47.590;19.022;2023-04-25T07:27:58;10.60;99.90
27004;DHT22;14546;47.590;19.022;2023-04-25T07:30:24;10.60;99.90
27004;DHT22;14546;47.590;19.022;2023-04-25T07:32:50;10.70;99.90
27004;DHT22;14546;47.590;19.022;2023-04-25T07:35:17;10.70;99.90
27004;DHT22;14546;47.590;19.022;2023-04-25T07:37:43;10.80;99.90
27004;DHT22;14546;47.590;19.022;2023-04-25T07:40:09;10.90;99.90
27004;DHT22;14546;47.590;19.022;2023-04-25T07:42:35;10.90;99.90
27004;DHT22;14546;47.590;19.022;2023-04-25T07:45:01;11.00;99.90
27004;DHT22;14546;47.590;19.022;2023-04-25T07:47:30;11.10;99.90
27004;DHT22;14546;47.590;19.022;2023-04-25T07:49:56;11.20;99.90
27004;DHT22;14546;47.590;19.022;2023-04-25T07:52:23;11.20;99.90
27004;DHT22;14546;47.590;19.022;2023-04-25T07:54:49;11.30;99.90
27004;DHT22;14546;47.590;19.022;2023-04-25T07:57:14;11.30;99.90
27004;DHT22;14546;47.590;19.022;2023-04-25T07:59:42;11.40;99.90
27004;DHT22;14546;47.590;19.022;2023-04-25T08:02:07;11.50;99.90
27004;DHT22;14546;47.590;19.022;2023-04-25T08:04:33;11.60;99.90
27004;DHT22;14546;47.590;19.022;2023-04-25T08:06:59;11.70;99.90
27004;DHT22;14546;47.590;19.022;2023-04-25T08:09:25;11.80;99.90
27004;DHT22;14546;47.590;19.022;2023-04-25T08:11:51;11.90;99.90
27004;DHT22;14546;47.590;19.022;2023-04-25T08:14:16;12.10;99.90
27004;DHT22;14546;47.590;19.022;2023-04-25T08:16:42;12.10;99.90
27004;DHT22;14546;47.590;19.022;2023-04-25T08:19:09;12.30;99.90
27004;DHT22;14546;47.590;19.022;2023-04-25T08:21:34;12.40;99.90
27004;DHT22;14546;47.590;19.022;2023-04-25T08:24:00;12.50;99.80
27004;DHT22;14546;47.590;19.022;2023-04-25T08:26:26;12.60;99.00
27004;DHT22;14546;47.590;19.022;2023-04-25T08:28:51;12.60;98.00
27004;DHT22;14546;47.590;19.022;2023-04-25T08:31:17;12.60;97.50
27004;DHT22;14546;47.590;19.022;2023-04-25T08:33:43;12.60;97.10
27004;DHT22;14546;47.590;19.022;2023-04-25T08:36:10;12.50;96.70
27004;DHT22;14546;47.590;19.022;2023-04-25T08:38:36;12.50;96.70
27004;DHT22;14546;47.590;19.022;2023-04-25T08:41:02;12.50;96.40
27004;DHT22;14546;47.590;19.022;2023-04-25T08:43:29;12.50;96.20
27004;DHT22;14546;47.590;19.022;2023-04-25T08:45:59;12.50;96.00
27004;DHT22;14546;47.590;19.022;2023-04-25T08:48:27;12.50;95.70
27004;DHT22;14546;47.590;19.022;2023-04-25T08:50:55;12.50;95.30
27004;DHT22;14546;47.590;19.022;2023-04-25T08:53:31;12.50;95.00
27004;DHT22;14546;47.590;19.022;2023-04-25T08:55:59;12.40;94.50
27004;DHT22;14546;47.590;19.022;2023-04-25T08:58:25;12.40;94.40
27004;DHT22;14546;47.590;19.022;2023-04-25T09:00:51;12.40;93.70
27004;DHT22;14546;47.590;19.022;2023-04-25T09:03:18;12.50;93.80
27004;DHT22;14546;47.590;19.022;2023-04-25T09:05:44;12.50;93.60
27004;DHT22;14546;47.590;19.022;2023-04-25T09:08:10;12.60;93.40
27004;DHT22;14546;47.590;19.022;2023-04-25T09:10:36;12.70;92.90
27004;DHT22;14546;47.590;19.022;2023-04-25T09:13:13;12.70;92.30
27004;DHT22;14546;47.590;19.022;2023-04-25T09:15:54;12.80;92.00
27004;DHT22;14546;47.590;19.022;2023-04-25T09:18:32;12.80;91.60
27004;DHT22;14546;47.590;19.022;2023-04-25T09:21:06;12.80;90.60
27004;DHT22;14546;47.590;19.022;2023-04-25T09:23:38;12.80;90.70
27004;DHT22;14546;47.590;19.022;2023-04-25T09:26:06;12.80;90.40
27004;DHT22;14546;47.590;19.022;2023-04-25T09:28:32;12.80;90.60
27004;DHT22;14546;47.590;19.022;2023-04-25T09:31:00;12.80;90.50
27004;DHT22;14546;47.590;19.022;2023-04-25T09:33:33;12.80;90.00
27004;DHT22;14546;47.590;19.022;2023-04-25T09:36:10;12.80;89.40
27004;DHT22;14546;47.590;19.022;2023-04-25T09:38:43;12.80;89.40
27004;DHT22;14546;47.590;19.022;2023-04-25T09:41:11;12.90;90.20
27004;DHT22;14546;47.590;19.022;2023-04-25T09:43:37;13.20;90.50
27004;DHT22;14546;47.590;19.022;2023-04-25T09:46:08;13.40;89.30
27004;DHT22;14546;47.590;19.022;2023-04-25T09:48:35;13.50;87.60
27004;DHT22;14546;47.590;19.022;2023-04-25T09:53:38;13.70;87.90
27004;DHT22;14546;47.590;19.022;2023-04-25T09:56:05;14.50;86.80
27004;DHT22;14546;47.590;19.022;2023-04-25T09:58:35;14.70;83.90
27004;DHT22;14546;47.590;19.022;2023-04-25T10:01:06;14.70;82.30
27004;DHT22;14546;47.590;19.022;2023-04-25T10:03:35;14.70;80.70
27004;DHT22;14546;47.590;19.022;2023-04-25T10:06:08;14.70;78.60
27004;DHT22;14546;47.590;19.022;2023-04-25T10:08:37;14.70;78.90
27004;DHT22;14546;47.590;19.022;2023-04-25T10:11:05;14.70;78.40
27004;DHT22;14546;47.590;19.022;2023-04-25T10:13:31;14.70;77.40
27004;DHT22;14546;47.590;19.022;2023-04-25T10:15:59;14.70;77.50
27004;DHT22;14546;47.590;19.022;2023-04-25T10:18:27;14.70;76.90
27004;DHT22;14546;47.590;19.022;2023-04-25T10:20:54;14.70;76.50
27004;DHT22;14546;47.590;19.022;2023-04-25T10:23:20;14.70;75.90
27004;DHT22;14546;47.590;19.022;2023-04-25T10:25:50;14.70;76.10
27004;DHT22;14546;47.590;19.022;2023-04-25T10:28:17;14.70;76.80
27004;DHT22;14546;47.590;19.022;2023-04-25T10:31:03;14.70;77.00
27004;DHT22;14546;47.590;19.022;2023-04-25T10:33:37;14.70;76.00
27004;DHT22;14546;47.590;19.022;2023-04-25T10:36:13;14.80;76.30
27004;DHT22;14546;47.590;19.022;2023-04-25T10:38:39;14.80;76.20
27004;DHT22;14546;47.590;19.022;2023-04-25T10:41:08;14.80;76.10
27004;DHT22;14546;47.590;19.022;2023-04-25T10:43:36;14.90;74.10
27004;DHT22;14546;47.590;19.022;2023-04-25T10:46:25;14.90;73.40
27004;DHT22;14546;47.590;19.022;2023-04-25T10:51:26;15.10;72.00
27004;DHT22;14546;47.590;19.022;2023-04-25T10:59:07;15.30;69.70
27004;DHT22;14546;47.590;19.022;2023-04-25T11:01:44;15.60;70.10
27004;DHT22;14546;47.590;19.022;2023-04-25T11:04:40;15.90;68.20
27004;DHT22;14546;47.590;19.022;2023-04-25T11:22:03;16.10;67.40
27004;DHT22;14546;47.590;19.022;2023-04-25T14:30:57;17.40;65.60
27004;DHT22;14546;47.590;19.022;2023-04-25T14:33:22;22.40;48.50
27004;DHT22;14546;47.590;19.022;2023-04-25T14:35:49;22.00;47.50
27004;DHT22;14546;47.590;19.022;2023-04-25T14:38:14;21.90;45.00
27004;DHT22;14546;47.590;19.022;2023-04-25T14:40:41;21.80;44.60
27004;DHT22;14546;47.590;19.022;2023-04-25T14:43:07;21.60;42.90
27004;DHT22;14546;47.590;19.022;2023-04-25T14:45:33;21.50;40.30
27004;DHT22;14546;47.590;19.022;2023-04-25T14:50:25;20.80;37.70
27004;DHT22;14546;47.590;19.022;2023-04-25T14:52:53;20.40;38.00
27004;DHT22;14546;47.590;19.022;2023-04-25T14:55:19;20.30;38.50
27004;DHT22;14546;47.590;19.022;2023-04-25T14:57:45;20.20;39.00
27004;DHT22;14546;47.590;19.022;2023-04-25T15:00:11;20.00;39.40
27004;DHT22;14546;47.590;19.022;2023-04-25T15:14:54;19.80;40.00
27004;DHT22;14546;47.590;19.022;2023-04-25T15:17:19;19.60;40.70
27004;DHT22;14546;47.590;19.022;2023-04-25T15:19:45;19.50;40.90
27004;DHT22;14546;47.590;19.022;2023-04-25T15:22:11;19.50;41.10
27004;DHT22;14546;47.590;19.022;2023-04-25T15:29:30;19.30;41.30
27004;DHT22;14546;47.590;19.022;2023-04-25T15:31:56;18.80;42.50
27004;DHT22;14546;47.590;19.022;2023-04-25T15:51:28;18.60;42.40
27004;DHT22;14546;47.590;19.022;2023-04-25T15:53:53;17.50;47.90
27004;DHT22;14546;47.590;19.022;2023-04-25T15:56:19;17.30;50.30
27004;DHT22;14546;47.590;19.022;2023-04-25T15:58:46;16.90;47.40
27004;DHT22;14546;47.590;19.022;2023-04-25T16:01:13;16.70;48.90
27004;DHT22;14546;47.590;19.022;2023-04-25T16:03:39;16.40;49.80
27004;DHT22;14546;47.590;19.022;2023-04-25T16:06:05;16.30;50.70
27004;DHT22;14546;47.590;19.022;2023-04-25T16:08:31;16.10;51.20
27004;DHT22;14546;47.590;19.022;2023-04-25T16:11:01;15.90;51.50
27004;DHT22;14546;47.590;19.022;2023-04-25T16:13:27;15.70;52.50
27004;DHT22;14546;47.590;19.022;2023-04-25T16:15:54;15.60;53.10
27004;DHT22;14546;47.590;19.022;2023-04-25T16:18:20;15.60;53.60
27004;DHT22;14546;47.590;19.022;2023-04-25T16:20:45;15.50;53.70
27004;DHT22;14546;47.590;19.022;2023-04-25T16:23:11;15.40;54.10
27004;DHT22;14546;47.590;19.022;2023-04-25T16:25:37;15.40;54.30
27004;DHT22;14546;47.590;19.022;2023-04-25T16:28:02;15.30;54.50
27004;DHT22;14546;47.590;19.022;2023-04-25T16:30:28;15.20;54.70
27004;DHT22;14546;47.590;19.022;2023-04-25T16:32:53;15.00;55.00
27004;DHT22;14546;47.590;19.022;2023-04-25T16:35:21;14.90;55.50
27004;DHT22;14546;47.590;19.022;2023-04-25T16:37:47;14.80;56.00
27004;DHT22;14546;47.590;19.022;2023-04-25T16:40:13;14.70;56.70
27004;DHT22;14546;47.590;19.022;2023-04-25T16:42:39;14.70;59.20
27004;DHT22;14546;47.590;19.022;2023-04-25T16:45:05;14.60;60.30
27004;DHT22;14546;47.590;19.022;2023-04-25T16:47:30;14.60;61.60
27004;DHT22;14546;47.590;19.022;2023-04-25T16:49:59;14.60;62.60
27004;DHT22;14546;47.590;19.022;2023-04-25T16:52:26;14.50;63.40
27004;DHT22;14546;47.590;19.022;2023-04-25T16:54:51;14.40;64.20
27004;DHT22;14546;47.590;19.022;2023-04-25T16:57:17;14.50;64.60
27004;DHT22;14546;47.590;19.022;2023-04-25T16:59:42;14.40;65.00
27004;DHT22;14546;47.590;19.022;2023-04-25T17:02:11;14.30;65.60
27004;DHT22;14546;47.590;19.022;2023-04-25T17:04:37;14.30;66.10
27004;DHT22;14546;47.590;19.022;2023-04-25T17:07:03;14.20;66.60
27004;DHT22;14546;47.590;19.022;2023-04-25T17:09:28;14.30;67.10
27004;DHT22;14546;47.590;19.022;2023-04-25T17:11:55;14.20;66.90
27004;DHT22;14546;47.590;19.022;2023-04-25T17:14:21;14.20;67.10
27004;DHT22;14546;47.590;19.022;2023-04-25T17:16:47;14.10;67.80
27004;DHT22;14546;47.590;19.022;2023-04-25T17:19:13;14.10;68.30
27004;DHT22;14546;47.590;19.022;2023-04-25T17:21:42;14.00;68.70
27004;DHT22;14546;47.590;19.022;2023-04-25T17:24:08;13.90;68.70
27004;DHT22;14546;47.590;19.022;2023-04-25T17:26:37;13.90;69.00
27004;DHT22;14546;47.590;19.022;2023-04-25T17:29:03;13.90;69.60
27004;DHT22;14546;47.590;19.022;2023-04-25T17:31:29;13.80;70.00
27004;DHT22;14546;47.590;19.022;2023-04-25T17:33:55;13.70;70.50
27004;DHT22;14546;47.590;19.022;2023-04-25T17:36:22;13.60;71.20
27004;DHT22;14546;47.590;19.022;2023-04-25T17:38:48;13.60;71.70
27004;DHT22;14546;47.590;19.022;2023-04-25T17:41:15;13.50;71.00
27004;DHT22;14546;47.590;19.022;2023-04-25T17:43:41;13.40;63.30
27004;DHT22;14546;47.590;19.022;2023-04-25T17:46:07;13.30;61.30
27004;DHT22;14546;47.590;19.022;2023-04-25T17:48:33;13.20;61.00
27004;DHT22;14546;47.590;19.022;2023-04-25T17:50:59;13.20;61.10
27004;DHT22;14546;47.590;19.022;2023-04-25T17:53:25;13.10;61.20
27004;DHT22;14546;47.590;19.022;2023-04-25T17:55:51;13.00;61.20
27004;DHT22;14546;47.590;19.022;2023-04-25T17:58:16;12.90;61.30
27004;DHT22;14546;47.590;19.022;2023-04-25T18:00:44;12.90;61.60
27004;DHT22;14546;47.590;19.022;2023-04-25T18:03:11;12.80;61.50
27004;DHT22;14546;47.590;19.022;2023-04-25T18:05:37;12.70;61.50
27004;DHT22;14546;47.590;19.022;2023-04-25T18:08:02;12.60;61.60
27004;DHT22;14546;47.590;19.022;2023-04-25T18:10:29;12.50;61.60
27004;DHT22;14546;47.590;19.022;2023-04-25T18:12:55;12.50;61.90
27004;DHT22;14546;47.590;19.022;2023-04-25T18:15:21;12.40;62.10
27004;DHT22;14546;47.590;19.022;2023-04-25T18:17:47;12.30;62.40
27004;DHT22;14546;47.590;19.022;2023-04-25T18:20:13;12.20;63.00
27004;DHT22;14546;47.590;19.022;2023-04-25T18:22:41;12.10;63.80
27004;DHT22;14546;47.590;19.022;2023-04-25T18:25:07;12.10;64.90
27004;DHT22;14546;47.590;19.022;2023-04-25T18:27:36;12.00;65.20
27004;DHT22;14546;47.590;19.022;2023-04-25T18:30:09;12.10;65.70
27004;DHT22;14546;47.590;19.022;2023-04-25T18:32:36;12.00;66.00
27004;DHT22;14546;47.590;19.022;2023-04-25T18:35:02;12.00;66.40
27004;DHT22;14546;47.590;19.022;2023-04-25T18:37:29;11.90;66.60
27004;DHT22;14546;47.590;19.022;2023-04-25T18:39:54;11.90;66.90
27004;DHT22;14546;47.590;19.022;2023-04-25T18:42:20;11.80;66.90
27004;DHT22;14546;47.590;19.022;2023-04-25T18:44:46;11.80;67.10
27004;DHT22;14546;47.590;19.022;2023-04-25T18:47:12;11.70;67.20
27004;DHT22;14546;47.590;19.022;2023-04-25T18:49:39;11.70;67.30
27004;DHT22;14546;47.590;19.022;2023-04-25T18:52:06;11.70;67.30
27004;DHT22;14546;47.590;19.022;2023-04-25T18:54:37;11.60;67.50
27004;DHT22;14546;47.590;19.022;2023-04-25T18:57:03;11.60;67.60
27004;DHT22;14546;47.590;19.022;2023-04-25T18:59:32;11.60;67.80
27004;DHT22;14546;47.590;19.022;2023-04-25T19:01:58;11.50;67.70
27004;DHT22;14546;47.590;19.022;2023-04-25T19:04:26;11.50;67.80
27004;DHT22;14546;47.590;19.022;2023-04-25T19:06:52;11.50;68.70
27004;DHT22;14546;47.590;19.022;2023-04-25T19:09:18;11.40;67.90
27004;DHT22;14546;47.590;19.022;2023-04-25T19:11:44;11.40;68.00
27004;DHT22;14546;47.590;19.022;2023-04-25T19:14:12;11.40;68.30
27004;DHT22;14546;47.590;19.022;2023-04-25T19:16:37;11.30;68.40
27004;DHT22;14546;47.590;19.022;2023-04-25T19:19:04;11.30;68.60
27004;DHT22;14546;47.590;19.022;2023-04-25T19:21:31;11.30;68.70
27004;DHT22;14546;47.590;19.022;2023-04-25T19:23:57;11.20;68.90